createdAt,value
2019-06-27T00:01:25.628Z,99.90
2019-06-27T00:03:54.127Z,99.90
2019-06-27T00:06:22.599Z,99.90
2019-06-27T00:08:51.087Z,99.90
2019-06-27T00:11:20.521Z,99.90
2019-06-27T00:13:49.374Z,99.90
2019-06-27T00:16:17.869Z,99.90
2019-06-27T00:18:48.328Z,99.90
2019-06-27T00:21:16.594Z,99.90
2019-06-27T00:23:45.404Z,99.90
2019-06-27T00:26:13.882Z,99.90
2019-06-27T00:28:42.369Z,99.90
2019-06-27T00:31:10.835Z,99.90
2019-06-27T00:33:39.291Z,99.90
2019-06-27T00:36:07.776Z,99.90
2019-06-27T00:38:38.039Z,99.90
2019-06-27T00:41:06.523Z,99.90
2019-06-27T00:43:34.996Z,99.90
2019-06-27T00:46:03.457Z,99.90
2019-06-27T00:48:31.924Z,99.90
2019-06-27T00:51:01.636Z,99.90
2019-06-27T00:53:30.162Z,99.90
2019-06-27T00:55:58.635Z,99.90
2019-06-27T00:58:27.113Z,99.90
2019-06-27T01:00:55.579Z,99.90
2019-06-27T01:03:24.029Z,99.90
2019-06-27T01:05:53.740Z,99.90
2019-06-27T01:08:22.208Z,99.90
2019-06-27T01:10:51.019Z,99.90
2019-06-27T01:13:19.486Z,99.90
2019-06-27T01:15:48.054Z,99.90
2019-06-27T01:18:16.520Z,99.90
2019-06-27T01:20:44.995Z,99.90
2019-06-27T01:23:13.492Z,99.90
2019-06-27T01:25:42.008Z,99.90
2019-06-27T01:28:10.443Z,99.90
2019-06-27T01:30:38.912Z,99.90
2019-06-27T01:33:07.644Z,99.90
2019-06-27T01:35:36.130Z,99.90
2019-06-27T01:38:04.919Z,99.90
2019-06-27T01:40:33.379Z,99.90
2019-06-27T01:43:01.851Z,99.90
2019-06-27T01:45:50.067Z,99.90
2019-06-27T01:48:18.529Z,99.90
2019-06-27T01:50:46.987Z,99.90
2019-06-27T01:53:15.861Z,99.90
2019-06-27T01:55:44.323Z,99.90
2019-06-27T01:58:13.129Z,99.90
2019-06-27T02:00:42.120Z,99.90
2019-06-27T02:03:10.653Z,99.90
2019-06-27T02:05:39.375Z,99.90
2019-06-27T02:08:07.835Z,99.90
2019-06-27T02:10:37.478Z,99.90
2019-06-27T02:13:05.991Z,99.90
2019-06-27T02:15:34.446Z,99.90
2019-06-27T02:18:02.927Z,99.90
2019-06-27T02:20:32.800Z,99.90
2019-06-27T02:23:01.244Z,99.90
2019-06-27T02:25:29.892Z,99.90
2019-06-27T02:28:03.796Z,99.90
2019-06-27T02:30:36.976Z,99.90
2019-06-27T02:33:05.441Z,99.90
2019-06-27T02:35:35.193Z,99.90
2019-06-27T02:38:03.729Z,99.90
2019-06-27T02:40:32.267Z,99.90
2019-06-27T02:43:00.925Z,99.90
2019-06-27T02:45:29.496Z,99.90
2019-06-27T02:47:57.954Z,99.90
2019-06-27T02:50:26.416Z,99.90
2019-06-27T02:52:54.942Z,99.90
2019-06-27T02:55:23.434Z,99.90
2019-06-27T02:57:51.885Z,99.90
2019-06-27T03:00:20.592Z,99.90
2019-06-27T03:02:49.023Z,99.90
2019-06-27T03:05:17.958Z,99.90
2019-06-27T03:07:46.420Z,99.90
2019-06-27T03:10:15.328Z,99.90
2019-06-27T03:12:43.772Z,99.90
2019-06-27T03:15:12.797Z,99.90
2019-06-27T03:17:41.287Z,99.90
2019-06-27T03:20:09.970Z,99.90
2019-06-27T03:22:38.632Z,99.90
2019-06-27T03:25:08.135Z,99.90
2019-06-27T03:27:36.557Z,99.90
2019-06-27T03:30:07.984Z,99.90
2019-06-27T03:32:36.404Z,99.90
2019-06-27T03:35:05.125Z,99.90
2019-06-27T03:37:33.612Z,99.90
2019-06-27T03:40:02.045Z,99.90
2019-06-27T03:42:30.471Z,99.90
2019-06-27T03:44:58.901Z,99.90
2019-06-27T03:47:27.331Z,99.90
2019-06-27T03:49:58.713Z,99.90
2019-06-27T03:52:27.139Z,99.90
2019-06-27T03:54:55.561Z,99.90
2019-06-27T03:57:24.292Z,99.90
2019-06-27T03:59:52.899Z,99.90
2019-06-27T04:02:22.746Z,99.90
2019-06-27T04:04:51.183Z,99.90
2019-06-27T04:07:19.620Z,99.90
2019-06-27T04:09:48.044Z,99.90
2019-06-27T04:12:16.475Z,99.90
2019-06-27T04:14:44.911Z,99.90
2019-06-27T04:17:13.337Z,99.90
2019-06-27T04:19:41.781Z,99.90
2019-06-27T04:22:10.271Z,99.90
2019-06-27T04:24:38.692Z,99.90
2019-06-27T04:27:07.131Z,99.90
2019-06-27T04:29:35.557Z,99.90
2019-06-27T04:32:04.055Z,99.90
2019-06-27T04:34:32.496Z,99.90
2019-06-27T04:37:01.292Z,99.90
2019-06-27T04:39:30.974Z,99.90
2019-06-27T04:41:59.436Z,99.90
2019-06-27T04:44:27.858Z,99.90
2019-06-27T04:46:56.310Z,99.90
2019-06-27T04:49:24.721Z,99.90
2019-06-27T04:51:53.161Z,99.30
2019-06-27T04:54:24.253Z,97.00
2019-06-27T04:56:52.683Z,95.60
2019-06-27T04:59:21.421Z,94.40
2019-06-27T05:01:49.851Z,92.20
2019-06-27T05:04:18.275Z,91.10
2019-06-27T05:06:46.711Z,90.50
2019-06-27T05:09:16.397Z,89.00
2019-06-27T05:11:44.856Z,88.80
2019-06-27T05:14:13.271Z,88.40
2019-06-27T05:16:41.986Z,86.00
2019-06-27T05:19:10.667Z,84.60
2019-06-27T05:21:39.105Z,81.70
2019-06-27T05:24:07.529Z,77.70
2019-06-27T05:26:35.966Z,76.20
2019-06-27T05:29:06.144Z,75.10
2019-06-27T05:31:34.606Z,72.20
2019-06-27T05:34:03.056Z,67.40
2019-06-27T05:36:31.762Z,64.50
2019-06-27T05:39:00.178Z,64.90
2019-06-27T05:41:30.171Z,63.60
2019-06-27T05:44:00.756Z,62.10
2019-06-27T05:46:29.234Z,60.50
2019-06-27T05:48:57.657Z,58.30
2019-06-27T05:51:26.429Z,57.90
2019-06-27T05:53:54.850Z,56.10
2019-06-27T05:56:23.273Z,56.00
2019-06-27T05:58:52.210Z,55.50
2019-06-27T06:01:20.906Z,53.00
2019-06-27T06:03:49.321Z,51.30
2019-06-27T06:06:17.766Z,49.60
2019-06-27T06:08:46.199Z,47.40
2019-06-27T06:11:19.299Z,46.50
2019-06-27T06:13:44.773Z,44.50
2019-06-27T06:16:13.241Z,44.40
2019-06-27T06:18:42.082Z,42.80
2019-06-27T06:21:10.507Z,43.20
2019-06-27T06:23:38.943Z,43.20
2019-06-27T06:26:08.658Z,43.70
2019-06-27T06:28:37.124Z,41.20
2019-06-27T06:31:05.651Z,40.80
2019-06-27T06:33:34.097Z,40.50
2019-06-27T06:36:02.519Z,41.10
2019-06-27T06:38:30.938Z,41.40
2019-06-27T06:40:59.356Z,42.10
2019-06-27T06:43:27.786Z,40.70
2019-06-27T06:45:56.195Z,40.10
2019-06-27T06:48:25.842Z,40.70
2019-06-27T06:50:54.222Z,41.00
2019-06-27T06:53:23.914Z,40.90
2019-06-27T06:55:52.343Z,39.20
2019-06-27T06:58:20.771Z,39.70
2019-06-27T07:01:01.162Z,37.70
2019-06-27T07:03:19.358Z,36.20
2019-06-27T07:05:48.086Z,35.40
2019-06-27T07:08:16.510Z,35.20
2019-06-27T07:10:44.925Z,34.50
2019-06-27T07:13:13.353Z,33.70
2019-06-27T07:15:41.770Z,33.40
2019-06-27T07:18:10.203Z,34.70
2019-06-27T07:20:38.834Z,34.40
2019-06-27T07:23:07.724Z,35.40
2019-06-27T07:25:36.266Z,35.20
2019-06-27T07:28:04.702Z,36.00
2019-06-27T07:30:33.123Z,35.10
2019-06-27T07:33:01.573Z,35.00
2019-06-27T07:35:30.049Z,34.80
2019-06-27T07:37:58.877Z,33.70
2019-06-27T07:40:27.322Z,32.70
2019-06-27T07:42:55.759Z,31.70
2019-06-27T07:45:24.466Z,31.60
2019-06-27T07:47:52.894Z,30.20
2019-06-27T07:50:21.486Z,30.20
2019-06-27T07:52:50.231Z,29.20
2019-06-27T07:55:20.640Z,28.60
2019-06-27T07:57:49.067Z,29.20
2019-06-27T08:00:19.104Z,28.60
2019-06-27T08:02:47.530Z,28.70
2019-06-27T08:05:16.122Z,28.30
2019-06-27T08:07:44.879Z,28.10
2019-06-27T08:10:13.862Z,28.60
2019-06-27T08:12:42.801Z,27.80
2019-06-27T08:15:12.896Z,27.60
2019-06-27T08:17:41.314Z,27.90
2019-06-27T08:20:10.975Z,28.00
2019-06-27T08:22:40.682Z,27.30
2019-06-27T08:25:09.533Z,27.40
2019-06-27T08:27:37.967Z,25.80
2019-06-27T08:30:08.665Z,25.40
2019-06-27T08:32:37.625Z,25.10
2019-06-27T08:35:07.839Z,25.30
2019-06-27T08:37:39.479Z,25.80
2019-06-27T08:40:08.540Z,25.60
2019-06-27T08:42:36.957Z,26.10
2019-06-27T08:45:07.962Z,26.80
2019-06-27T08:47:42.315Z,26.50
2019-06-27T08:50:11.280Z,27.20
2019-06-27T08:52:39.690Z,27.10
2019-06-27T08:55:09.131Z,26.40
2019-06-27T08:57:37.560Z,27.40
2019-06-27T09:00:08.526Z,26.90
2019-06-27T09:02:37.236Z,27.30
2019-06-27T09:05:08.074Z,27.40
2019-06-27T09:07:36.757Z,28.30
2019-06-27T09:10:06.972Z,29.00
2019-06-27T09:12:35.655Z,28.40
2019-06-27T09:15:05.925Z,28.00
2019-06-27T09:17:34.766Z,26.20
2019-06-27T09:20:03.963Z,26.90
2019-06-27T09:22:32.453Z,25.80
2019-06-27T09:25:00.919Z,24.90
2019-06-27T09:27:29.446Z,25.00
2019-06-27T09:29:57.948Z,24.60
2019-06-27T09:32:26.674Z,24.30
2019-06-27T09:34:55.110Z,24.40
2019-06-27T09:37:23.840Z,23.60
2019-06-27T09:39:52.262Z,23.40
2019-06-27T09:42:20.682Z,24.00
2019-06-27T09:44:49.109Z,23.10
2019-06-27T09:47:17.529Z,23.50
2019-06-27T09:49:45.957Z,22.60
2019-06-27T09:52:14.369Z,22.40
2019-06-27T09:54:43.811Z,22.20
2019-06-27T09:57:12.196Z,21.50
2019-06-27T09:59:40.629Z,21.70
2019-06-27T10:02:09.050Z,21.20
2019-06-27T10:04:37.483Z,21.40
2019-06-27T10:07:06.461Z,22.20
2019-06-27T10:09:36.291Z,21.40
2019-06-27T10:12:04.794Z,21.30
2019-06-27T10:14:33.231Z,21.70
2019-06-27T10:17:01.958Z,21.00
2019-06-27T10:19:30.391Z,21.50
2019-06-27T10:22:00.051Z,21.60
2019-06-27T10:24:28.526Z,21.50
2019-06-27T10:26:57.223Z,21.50
2019-06-27T10:29:25.661Z,21.90
2019-06-27T10:31:54.066Z,21.50
2019-06-27T10:34:22.850Z,22.20
2019-06-27T10:36:51.268Z,21.80
2019-06-27T10:39:19.685Z,22.40
2019-06-27T10:41:48.104Z,22.00
2019-06-27T10:44:16.547Z,23.10
2019-06-27T10:46:44.947Z,23.20
2019-06-27T10:49:13.379Z,23.10
2019-06-27T10:51:41.801Z,23.10
2019-06-27T10:54:11.512Z,23.90
2019-06-27T10:56:40.159Z,23.10
2019-06-27T10:59:12.759Z,23.40
2019-06-27T11:01:42.298Z,24.80
2019-06-27T11:04:12.377Z,24.20
2019-06-27T11:06:40.786Z,24.70
2019-06-27T11:09:09.558Z,24.50
2019-06-27T11:11:41.668Z,23.90
2019-06-27T11:14:10.108Z,24.70
2019-06-27T11:16:40.099Z,24.90
2019-06-27T11:19:08.505Z,24.50
2019-06-27T11:21:36.939Z,25.50
2019-06-27T11:24:06.580Z,24.80
2019-06-27T11:26:35.056Z,25.40
2019-06-27T11:29:03.557Z,26.00
2019-06-27T11:31:31.979Z,27.60
2019-06-27T11:34:00.656Z,27.00
2019-06-27T11:36:29.372Z,27.70
2019-06-27T11:38:59.434Z,27.50
2019-06-27T11:41:27.857Z,27.70
2019-06-27T11:43:57.791Z,28.40
2019-06-27T11:46:27.613Z,28.10
2019-06-27T11:48:56.017Z,28.70
2019-06-27T11:51:24.762Z,28.30
2019-06-27T11:53:53.200Z,29.60
2019-06-27T11:56:21.623Z,29.90
2019-06-27T11:58:50.047Z,30.40
2019-06-27T12:01:18.479Z,31.10
2019-06-27T12:03:49.790Z,31.60
2019-06-27T12:06:17.058Z,29.30
2019-06-27T12:08:45.755Z,32.20
2019-06-27T12:11:14.183Z,32.40
2019-06-27T12:13:43.019Z,33.20
2019-06-27T12:16:11.450Z,32.50
2019-06-27T12:18:39.870Z,32.60
2019-06-27T12:21:08.298Z,33.60
2019-06-27T12:23:36.719Z,33.40
2019-06-27T12:26:06.539Z,34.30
2019-06-27T12:28:35.330Z,35.50
2019-06-27T12:31:19.435Z,33.50
2019-06-27T12:33:34.155Z,35.00
2019-06-27T12:36:02.587Z,35.10
2019-06-27T12:38:31.295Z,35.90
2019-06-27T12:40:59.794Z,35.10
2019-06-27T12:43:28.309Z,35.10
2019-06-27T12:45:56.738Z,35.60
2019-06-27T12:48:25.166Z,35.50
2019-06-27T12:50:53.598Z,35.50
2019-06-27T12:53:22.009Z,35.40
2019-06-27T12:55:50.437Z,35.00
2019-06-27T12:58:18.855Z,35.90
2019-06-27T13:00:48.362Z,34.10
2019-06-27T13:03:17.130Z,34.10
2019-06-27T13:05:45.556Z,35.90
2019-06-27T13:08:13.977Z,33.70
2019-06-27T13:10:42.754Z,35.30
2019-06-27T13:13:11.178Z,34.30
2019-06-27T13:15:39.593Z,36.60
2019-06-27T13:18:08.013Z,35.20
2019-06-27T13:20:36.445Z,34.10
2019-06-27T13:23:05.111Z,36.40
2019-06-27T13:25:34.454Z,34.80
2019-06-27T13:28:04.349Z,34.40
2019-06-27T13:30:32.746Z,34.40
2019-06-27T13:33:01.423Z,33.50
2019-06-27T13:35:29.853Z,34.60
2019-06-27T13:37:58.309Z,32.90
2019-06-27T13:40:26.786Z,32.50
2019-06-27T13:42:55.745Z,32.50
2019-06-27T13:45:26.591Z,32.30
2019-06-27T13:47:55.554Z,32.30
2019-06-27T13:50:24.037Z,33.50
2019-06-27T13:52:54.750Z,33.90
2019-06-27T13:55:24.092Z,36.10
2019-06-27T13:57:56.447Z,33.70
2019-06-27T14:00:42.959Z,35.80
2019-06-27T14:03:11.637Z,36.20
2019-06-27T14:05:40.143Z,35.80
2019-06-27T14:08:09.036Z,33.70
2019-06-27T14:10:37.604Z,34.40
2019-06-27T14:13:06.175Z,33.70
2019-06-27T14:15:38.543Z,34.00
2019-06-27T14:18:07.127Z,34.80
2019-06-27T14:20:35.573Z,34.90
2019-06-27T14:23:04.169Z,34.20
2019-06-27T14:25:32.626Z,35.90
2019-06-27T14:28:01.097Z,34.50
2019-06-27T14:30:29.838Z,32.70
2019-06-27T14:32:58.622Z,35.40
2019-06-27T14:35:27.049Z,34.70
2019-06-27T14:37:55.478Z,36.30
2019-06-27T14:40:24.039Z,34.00
2019-06-27T14:42:52.466Z,35.50
2019-06-27T14:45:21.907Z,34.50
2019-06-27T14:47:50.337Z,34.60
2019-06-27T14:50:18.834Z,34.00
2019-06-27T14:52:47.266Z,34.20
2019-06-27T14:55:16.135Z,33.60
2019-06-27T14:57:44.558Z,35.20
2019-06-27T15:00:15.178Z,33.80
2019-06-27T15:02:43.610Z,34.10
2019-06-27T15:05:31.045Z,35.40
2019-06-27T15:07:44.806Z,33.30
2019-06-27T15:10:14.007Z,35.00
2019-06-27T15:12:55.978Z,34.70
2019-06-27T15:15:12.913Z,34.40
2019-06-27T15:17:42.120Z,33.20
2019-06-27T15:20:11.016Z,34.50
2019-06-27T15:22:39.452Z,34.30
2019-06-27T15:25:10.019Z,33.40
2019-06-27T15:27:38.446Z,33.40
2019-06-27T15:30:08.758Z,33.20
2019-06-27T15:32:37.316Z,33.00
2019-06-27T15:35:08.788Z,33.20
2019-06-27T15:37:37.218Z,34.30
2019-06-27T15:40:07.071Z,33.50
2019-06-27T15:42:35.760Z,33.60
2019-06-27T15:45:07.027Z,34.10
2019-06-27T15:47:35.446Z,33.60
2019-06-27T15:50:05.464Z,33.20
2019-06-27T15:52:33.915Z,34.00
2019-06-27T15:55:03.891Z,34.00
2019-06-27T15:57:32.322Z,33.50
2019-06-27T16:00:02.340Z,31.30
2019-06-27T16:02:30.851Z,32.40
2019-06-27T16:04:59.265Z,33.00
2019-06-27T16:07:27.696Z,32.80
2019-06-27T16:09:56.447Z,32.90
2019-06-27T16:12:25.066Z,32.90
2019-06-27T16:14:53.547Z,32.60
2019-06-27T16:17:21.990Z,31.30
2019-06-27T16:19:50.405Z,31.20
2019-06-27T16:22:18.840Z,32.40
2019-06-27T16:24:47.254Z,32.40
2019-06-27T16:27:15.682Z,31.90
2019-06-27T16:29:45.605Z,31.80
2019-06-27T16:32:14.038Z,32.30
2019-06-27T16:34:42.519Z,30.00
2019-06-27T16:37:10.942Z,30.40
2019-06-27T16:39:40.719Z,30.40
2019-06-27T16:42:09.146Z,30.90
2019-06-27T16:44:37.553Z,32.80
2019-06-27T16:47:06.308Z,32.30
2019-06-27T16:49:34.719Z,32.20
2019-06-27T16:52:03.138Z,33.60
2019-06-27T16:54:31.570Z,34.90
2019-06-27T16:56:59.984Z,31.70
2019-06-27T16:59:28.702Z,31.60
2019-06-27T17:01:57.388Z,32.20
2019-06-27T17:04:31.474Z,33.20
2019-06-27T17:06:57.391Z,33.40
2019-06-27T17:09:26.160Z,32.00
2019-06-27T17:11:54.705Z,31.60
2019-06-27T17:14:23.481Z,33.50
2019-06-27T17:16:51.901Z,34.50
2019-06-27T17:19:20.323Z,32.40
2019-06-27T17:21:50.463Z,30.40
2019-06-27T17:24:20.483Z,35.30
2019-06-27T17:26:49.178Z,33.30
2019-06-27T17:29:18.583Z,33.20
2019-06-27T17:31:47.001Z,34.10
2019-06-27T17:34:15.502Z,31.80
2019-06-27T17:36:56.485Z,31.70
2019-06-27T17:39:15.971Z,31.80
2019-06-27T17:41:44.441Z,32.00
2019-06-27T17:44:14.850Z,30.00
2019-06-27T17:46:46.370Z,29.40
2019-06-27T17:49:13.506Z,30.00
2019-06-27T17:51:41.956Z,28.90
2019-06-27T17:54:16.339Z,30.00
2019-06-27T17:56:44.753Z,30.00
2019-06-27T17:59:13.187Z,31.80
2019-06-27T18:01:41.606Z,29.60
2019-06-27T18:04:10.367Z,31.70
2019-06-27T18:06:38.861Z,31.00
2019-06-27T18:09:09.748Z,30.20
2019-06-27T18:11:38.196Z,30.40
2019-06-27T18:14:06.635Z,29.50
2019-06-27T18:16:35.046Z,29.90
2019-06-27T18:19:05.023Z,29.50
2019-06-27T18:21:33.536Z,31.20
2019-06-27T18:24:02.099Z,30.90
2019-06-27T18:26:32.211Z,30.70
2019-06-27T18:29:02.365Z,32.20
2019-06-27T18:31:30.769Z,31.60
2019-06-27T18:33:59.254Z,30.60
2019-06-27T18:36:27.712Z,32.90
2019-06-27T18:38:56.452Z,31.60
2019-06-27T18:41:24.889Z,32.00
2019-06-27T18:43:54.371Z,33.00
2019-06-27T18:46:23.238Z,32.80
2019-06-27T18:48:52.230Z,33.30
2019-06-27T18:51:22.296Z,33.70
2019-06-27T18:53:50.693Z,33.90
2019-06-27T18:56:19.126Z,34.00
2019-06-27T18:58:47.583Z,34.80
2019-06-27T19:01:16.078Z,35.30
2019-06-27T19:03:44.507Z,36.70
2019-06-27T19:06:12.932Z,37.30
2019-06-27T19:08:41.392Z,37.40
2019-06-27T19:11:09.841Z,37.70
2019-06-27T19:13:38.363Z,38.40
2019-06-27T19:16:06.802Z,38.50
2019-06-27T19:18:53.442Z,39.10
2019-06-27T19:21:38.879Z,39.00
2019-06-27T19:24:10.062Z,39.00
2019-06-27T19:26:38.746Z,39.10
2019-06-27T19:29:07.177Z,40.20
2019-06-27T19:31:35.595Z,40.90
2019-06-27T19:34:04.077Z,40.60
2019-06-27T19:36:32.516Z,41.30
2019-06-27T19:39:01.020Z,41.80
2019-06-27T19:41:29.434Z,42.00
2019-06-27T19:43:57.842Z,42.50
2019-06-27T19:46:29.058Z,43.70
2019-06-27T19:48:57.474Z,43.90
2019-06-27T19:51:25.918Z,44.40
2019-06-27T19:53:57.784Z,45.60
2019-06-27T19:56:24.512Z,45.60
2019-06-27T19:58:52.945Z,46.40
2019-06-27T20:01:21.506Z,47.10
2019-06-27T20:03:52.978Z,46.70
2019-06-27T20:06:25.935Z,47.90
2019-06-27T20:08:51.818Z,47.80
2019-06-27T20:11:21.510Z,48.80
2019-06-27T20:13:49.926Z,48.30
2019-06-27T20:16:18.345Z,48.80
2019-06-27T20:18:47.150Z,48.80
2019-06-27T20:21:15.818Z,48.60
2019-06-27T20:23:44.254Z,49.00
2019-06-27T20:26:12.692Z,49.70
2019-06-27T20:28:41.263Z,49.50
2019-06-27T20:31:09.753Z,50.30
2019-06-27T20:33:39.373Z,50.00
2019-06-27T20:36:07.804Z,50.50
2019-06-27T20:38:36.503Z,50.40
2019-06-27T20:41:04.929Z,51.50
2019-06-27T20:43:33.368Z,51.60
2019-06-27T20:46:01.783Z,51.60
2019-06-27T20:48:31.484Z,52.20
2019-06-27T20:51:01.177Z,52.70
2019-06-27T20:53:29.614Z,52.30
2019-06-27T20:56:02.497Z,52.70
2019-06-27T20:58:28.654Z,53.00
2019-06-27T21:00:57.074Z,53.60
2019-06-27T21:03:25.503Z,53.90
2019-06-27T21:05:53.919Z,53.60
2019-06-27T21:08:22.999Z,54.30
2019-06-27T21:10:53.681Z,54.70
2019-06-27T21:13:22.129Z,54.70
2019-06-27T21:15:50.672Z,55.10
2019-06-27T21:18:19.126Z,55.20
2019-06-27T21:20:47.551Z,55.00
2019-06-27T21:23:15.973Z,54.80
2019-06-27T21:25:44.402Z,54.50
2019-06-27T21:28:12.838Z,54.40
2019-06-27T21:30:41.266Z,55.20
2019-06-27T21:33:09.756Z,55.40
2019-06-27T21:35:38.194Z,55.00
2019-06-27T21:38:06.622Z,55.30
2019-06-27T21:40:35.055Z,55.50
2019-06-27T21:43:03.481Z,56.00
2019-06-27T21:45:32.314Z,55.70
2019-06-27T21:48:00.748Z,55.20
2019-06-27T21:50:30.478Z,55.70
2019-06-27T21:52:58.886Z,56.20
2019-06-27T21:55:27.661Z,56.50
2019-06-27T21:57:59.047Z,56.50
2019-06-27T22:00:27.774Z,56.40
2019-06-27T22:02:56.195Z,55.90
2019-06-27T22:05:24.775Z,56.30
2019-06-27T22:07:53.710Z,56.50
2019-06-27T22:10:22.748Z,56.10
2019-06-27T22:12:51.174Z,57.00
2019-06-27T22:15:19.594Z,57.00
2019-06-27T22:17:48.021Z,56.90
2019-06-27T22:20:18.158Z,56.90
2019-06-27T22:22:46.576Z,57.10
2019-06-27T22:25:15.070Z,57.00
2019-06-27T22:27:43.563Z,57.30
2019-06-27T22:30:12.326Z,57.30
2019-06-27T22:32:40.746Z,57.40
2019-06-27T22:35:09.617Z,57.90
2019-06-27T22:37:37.646Z,57.90
2019-06-27T22:40:26.592Z,58.00
2019-06-27T22:43:13.242Z,58.30
2019-06-27T22:45:59.826Z,58.60
2019-06-27T22:48:27.557Z,58.70
2019-06-27T22:50:57.618Z,59.00
2019-06-27T22:53:33.464Z,59.10
2019-06-27T22:56:02.029Z,59.50
2019-06-27T22:58:30.443Z,59.80
2019-06-27T23:00:58.871Z,59.90
2019-06-27T23:03:27.296Z,59.90
2019-06-27T23:05:55.699Z,60.90
2019-06-27T23:08:26.788Z,60.50
2019-06-27T23:10:55.473Z,60.80
2019-06-27T23:13:24.069Z,61.40
2019-06-27T23:15:52.482Z,61.90
2019-06-27T23:18:20.919Z,62.30
2019-06-27T23:20:49.587Z,62.70
2019-06-27T23:23:18.205Z,62.80
2019-06-27T23:25:50.726Z,63.50
2019-06-27T23:28:17.173Z,64.00
2019-06-27T23:30:45.594Z,64.00
2019-06-27T23:33:16.910Z,64.30
2019-06-27T23:35:45.335Z,64.70
2019-06-27T23:38:13.751Z,65.00
2019-06-27T23:40:42.175Z,65.70
2019-06-27T23:43:10.607Z,65.80
2019-06-27T23:45:39.494Z,66.10
2019-06-27T23:48:08.188Z,66.60
2019-06-27T23:50:36.606Z,67.20
2019-06-27T23:53:07.056Z,67.70
2019-06-27T23:55:35.242Z,68.20
2019-06-27T23:58:03.690Z,68.60
